createdAt,value
2018-05-23T00:02:21.041Z,77.90
2018-05-23T00:04:48.665Z,78.06
2018-05-23T00:07:16.236Z,77.42
2018-05-23T00:09:43.813Z,77.16
2018-05-23T00:12:11.480Z,76.88
2018-05-23T00:14:39.067Z,76.50
2018-05-23T00:17:06.662Z,76.36
2018-05-23T00:19:34.274Z,76.45
2018-05-23T00:22:02.785Z,76.72
2018-05-23T00:24:30.356Z,76.72
2018-05-23T00:26:57.947Z,76.81
2018-05-23T00:29:25.568Z,76.95
2018-05-23T00:31:53.163Z,76.47
2018-05-23T00:34:20.749Z,77.34
2018-05-23T00:36:48.340Z,78.11
2018-05-23T00:39:16.087Z,78.77
2018-05-23T00:41:43.673Z,79.01
2018-05-23T00:44:11.439Z,78.69
2018-05-23T00:46:39.016Z,78.79
2018-05-23T00:49:06.691Z,79.42
2018-05-23T00:51:34.324Z,79.71
2018-05-23T00:54:02.013Z,80.40
2018-05-23T00:56:29.612Z,80.77
2018-05-23T00:58:57.197Z,81.00
2018-05-23T01:01:24.786Z,81.17
2018-05-23T01:03:52.375Z,81.21
2018-05-23T01:06:19.978Z,81.08
2018-05-23T01:08:47.608Z,80.51
2018-05-23T01:11:15.195Z,80.00
2018-05-23T01:13:42.924Z,80.12
2018-05-23T01:16:10.520Z,80.11
2018-05-23T01:18:38.289Z,80.15
2018-05-23T01:21:05.979Z,80.42
2018-05-23T01:23:33.582Z,80.46
2018-05-23T01:26:01.209Z,80.47
2018-05-23T01:28:28.803Z,80.38
2018-05-23T01:30:56.422Z,80.54
2018-05-23T01:33:24.010Z,80.80
2018-05-23T01:35:51.600Z,81.07
2018-05-23T01:38:19.217Z,81.31
2018-05-23T01:40:47.061Z,81.72
2018-05-23T01:43:14.845Z,82.20
2018-05-23T01:45:43.320Z,82.30
2018-05-23T01:48:10.902Z,82.57
2018-05-23T01:50:38.547Z,82.75
2018-05-23T01:53:06.141Z,82.76
2018-05-23T01:55:33.733Z,83.25
2018-05-23T01:58:01.446Z,83.57
2018-05-23T02:00:29.182Z,83.06
2018-05-23T02:02:56.765Z,83.04
2018-05-23T02:05:24.357Z,82.97
2018-05-23T02:07:51.944Z,83.58
2018-05-23T02:10:19.529Z,83.61
2018-05-23T02:12:47.169Z,83.51
2018-05-23T02:15:14.758Z,83.74
2018-05-23T02:17:42.542Z,84.02
2018-05-23T02:20:10.067Z,84.19
2018-05-23T02:22:37.645Z,84.18
2018-05-23T02:25:05.268Z,84.05
2018-05-23T02:27:32.848Z,84.41
2018-05-23T02:30:00.433Z,84.04
2018-05-23T02:32:28.022Z,83.38
2018-05-23T02:34:55.850Z,83.86
2018-05-23T02:37:23.671Z,84.14
2018-05-23T02:39:51.255Z,84.71
2018-05-23T02:42:19.110Z,84.89
2018-05-23T02:44:46.701Z,85.04
2018-05-23T02:47:14.388Z,84.99
2018-05-23T02:49:41.958Z,84.80
2018-05-23T02:52:09.599Z,85.03
2018-05-23T02:54:37.197Z,85.40
2018-05-23T02:57:04.922Z,85.66
2018-05-23T02:59:32.519Z,85.63
2018-05-23T03:02:00.357Z,85.77
2018-05-23T03:04:28.169Z,85.96
2018-05-23T03:06:55.756Z,85.66
2018-05-23T03:09:23.395Z,85.27
2018-05-23T03:11:50.968Z,85.26
2018-05-23T03:14:18.547Z,85.63
2018-05-23T03:16:46.205Z,85.03
2018-05-23T03:19:13.877Z,84.82
2018-05-23T03:21:41.473Z,84.89
2018-05-23T03:24:09.056Z,84.56
2018-05-23T03:26:36.839Z,84.04
2018-05-23T03:29:04.446Z,83.44
2018-05-23T03:31:32.191Z,83.70
2018-05-23T03:33:59.804Z,84.35
2018-05-23T03:36:27.385Z,84.96
2018-05-23T03:38:55.001Z,84.86
2018-05-23T03:41:22.841Z,84.74
2018-05-23T03:43:50.433Z,84.19
2018-05-23T03:46:18.031Z,83.95
2018-05-23T03:48:45.896Z,84.05
2018-05-23T03:51:13.473Z,83.97
2018-05-23T03:53:41.052Z,84.07
2018-05-23T03:56:08.766Z,83.95
2018-05-23T03:58:36.349Z,83.99
2018-05-23T04:01:15.561Z,83.25
2018-05-23T04:03:54.818Z,83.22
2018-05-23T04:09:40.292Z,83.15
2018-05-23T04:12:07.854Z,83.12
2018-05-23T04:14:35.452Z,83.11
2018-05-23T04:17:03.056Z,82.96
2018-05-23T04:19:30.669Z,82.63
2018-05-23T04:21:58.461Z,81.91
2018-05-23T04:24:26.056Z,81.50
2018-05-23T04:26:53.700Z,81.37
2018-05-23T04:29:21.273Z,80.84
2018-05-23T04:31:49.059Z,80.60
2018-05-23T04:34:16.877Z,80.22
2018-05-23T04:36:44.610Z,79.66
2018-05-23T04:39:12.289Z,78.74
2018-05-23T04:41:40.034Z,77.76
2018-05-23T04:44:07.668Z,77.42
2018-05-23T04:46:35.278Z,77.15
2018-05-23T04:49:03.001Z,77.58
2018-05-23T04:51:30.805Z,77.04
2018-05-23T04:53:58.388Z,76.52
2018-05-23T04:56:26.029Z,76.40
2018-05-23T04:58:53.594Z,76.73
2018-05-23T05:01:24.257Z,76.96
2018-05-23T05:03:52.105Z,76.98
2018-05-23T05:06:19.688Z,76.02
2018-05-23T05:08:47.296Z,75.37
2018-05-23T05:11:14.872Z,74.84
2018-05-23T05:13:42.643Z,74.67
2018-05-23T05:16:10.196Z,74.34
2018-05-23T05:18:37.763Z,73.10
2018-05-23T05:21:05.354Z,72.71
2018-05-23T05:23:33.151Z,71.87
2018-05-23T05:26:00.745Z,68.88
2018-05-23T05:28:28.344Z,69.80
2018-05-23T05:30:55.990Z,68.51
2018-05-23T05:33:23.567Z,68.54
2018-05-23T05:35:51.163Z,68.54
2018-05-23T05:38:18.748Z,66.53
2018-05-23T05:40:46.518Z,66.40
2018-05-23T05:43:14.165Z,66.19
2018-05-23T05:45:41.760Z,66.50
2018-05-23T05:48:09.421Z,66.54
2018-05-23T05:50:37.022Z,65.13
2018-05-23T05:53:04.605Z,65.54
2018-05-23T05:55:32.252Z,64.95
2018-05-23T05:57:59.832Z,64.37
2018-05-23T06:00:27.521Z,63.99
2018-05-23T06:02:55.338Z,63.50
2018-05-23T06:05:22.927Z,63.48
2018-05-23T06:07:50.518Z,62.05
2018-05-23T06:10:18.142Z,62.05
2018-05-23T06:12:45.896Z,59.92
2018-05-23T06:15:13.477Z,59.96
2018-05-23T06:17:41.060Z,59.92
2018-05-23T06:20:08.865Z,60.39
2018-05-23T06:22:36.683Z,61.05
2018-05-23T06:25:04.312Z,58.94
2018-05-23T06:27:31.922Z,59.16
2018-05-23T06:29:59.761Z,57.95
2018-05-23T06:32:27.345Z,57.77
2018-05-23T06:34:54.998Z,56.80
2018-05-23T06:37:22.750Z,56.36
2018-05-23T06:39:50.334Z,57.17
2018-05-23T06:42:17.920Z,56.80
2018-05-23T06:44:45.508Z,54.29
2018-05-23T06:47:13.200Z,53.78
2018-05-23T06:49:40.801Z,53.08
2018-05-23T06:52:08.372Z,53.73
2018-05-23T06:54:35.952Z,52.72
2018-05-23T06:57:03.681Z,51.79
2018-05-23T06:59:31.909Z,51.46
2018-05-23T07:01:59.498Z,51.68
2018-05-23T07:04:27.345Z,49.56
2018-05-23T07:06:55.165Z,47.23
2018-05-23T07:09:22.746Z,46.64
2018-05-23T07:11:50.497Z,47.36
2018-05-23T07:14:18.320Z,46.96
2018-05-23T07:16:45.961Z,45.47
2018-05-23T07:19:13.535Z,44.10
2018-05-23T07:21:41.112Z,44.17
2018-05-23T07:24:08.780Z,43.67
2018-05-23T07:26:36.385Z,43.29
2018-05-23T07:29:04.161Z,43.63
2018-05-23T07:31:31.753Z,42.94
2018-05-23T07:33:59.659Z,43.12
2018-05-23T07:36:27.252Z,42.67
2018-05-23T07:38:54.959Z,43.17
2018-05-23T07:41:22.547Z,43.41
2018-05-23T07:43:50.127Z,43.95
2018-05-23T07:46:17.716Z,44.24
2018-05-23T07:48:45.357Z,42.67
2018-05-23T07:51:12.990Z,42.26
2018-05-23T07:53:40.810Z,43.21
2018-05-23T07:56:08.419Z,43.14
2018-05-23T07:58:36.246Z,39.86
2018-05-23T08:01:03.834Z,40.14
2018-05-23T08:03:31.425Z,40.43
2018-05-23T08:05:59.173Z,41.77
2018-05-23T08:08:27.138Z,39.53
2018-05-23T08:10:54.878Z,38.34
2018-05-23T08:13:22.459Z,37.98
2018-05-23T08:15:50.039Z,39.75
2018-05-23T08:18:17.793Z,40.67
2018-05-23T08:20:45.386Z,39.29
2018-05-23T08:23:13.001Z,38.80
2018-05-23T08:25:40.680Z,37.52
2018-05-23T08:28:08.301Z,35.86
2018-05-23T08:30:35.885Z,35.08
2018-05-23T08:33:03.481Z,35.02
2018-05-23T08:35:31.057Z,35.40
2018-05-23T08:37:58.636Z,31.85
2018-05-23T08:40:26.456Z,34.31
2018-05-23T08:42:54.271Z,31.97
2018-05-23T08:45:21.844Z,32.17
2018-05-23T08:47:49.421Z,31.31
2018-05-23T08:50:17.021Z,31.71
2018-05-23T08:52:44.593Z,32.69
2018-05-23T08:55:12.189Z,31.24
2018-05-23T08:57:39.756Z,30.97
2018-05-23T09:00:07.396Z,29.86
2018-05-23T09:02:34.973Z,29.95
2018-05-23T09:05:02.743Z,29.68
2018-05-23T09:07:30.454Z,31.12
2018-05-23T09:09:58.270Z,31.33
2018-05-23T09:12:25.958Z,32.24
2018-05-23T09:14:53.506Z,32.33
2018-05-23T09:17:21.148Z,31.06
2018-05-23T09:19:48.725Z,31.20
2018-05-23T09:22:16.307Z,30.32
2018-05-23T09:24:43.898Z,29.23
2018-05-23T09:27:11.472Z,28.12
2018-05-23T09:29:39.314Z,29.53
2018-05-23T09:32:06.945Z,28.95
2018-05-23T09:34:34.615Z,28.43
2018-05-23T09:37:02.370Z,27.80
2018-05-23T09:39:29.935Z,28.28
2018-05-23T09:41:57.528Z,27.21
2018-05-23T09:44:25.389Z,28.81
2018-05-23T09:46:52.995Z,27.01
2018-05-23T09:49:20.759Z,29.82
2018-05-23T09:51:48.685Z,25.52
2018-05-23T09:54:16.471Z,25.77
2018-05-23T09:56:44.265Z,27.13
2018-05-23T09:59:12.068Z,27.62
2018-05-23T10:01:39.723Z,29.26
2018-05-23T10:04:07.295Z,26.26
2018-05-23T10:06:34.945Z,25.52
2018-05-23T10:09:02.529Z,26.20
2018-05-23T10:11:30.498Z,27.01
2018-05-23T10:13:58.134Z,30.04
2018-05-23T10:16:25.697Z,27.00
2018-05-23T10:18:53.480Z,26.66
2018-05-23T10:21:21.073Z,28.40
2018-05-23T10:23:48.742Z,28.90
2018-05-23T10:26:16.345Z,26.64
2018-05-23T10:28:43.929Z,27.56
2018-05-23T10:31:11.559Z,28.45
2018-05-23T10:33:39.186Z,29.31
2018-05-23T10:36:06.789Z,27.90
2018-05-23T10:38:34.534Z,28.06
2018-05-23T10:41:02.109Z,29.44
2018-05-23T10:43:29.705Z,29.11
2018-05-23T10:45:57.479Z,28.54
2018-05-23T10:48:25.121Z,29.71
2018-05-23T10:50:52.825Z,30.71
2018-05-23T10:53:20.400Z,29.68
2018-05-23T10:55:48.013Z,28.90
2018-05-23T10:58:15.589Z,30.64
2018-05-23T11:00:43.173Z,29.75
2018-05-23T11:03:11.005Z,28.53
2018-05-23T11:05:38.731Z,29.04
2018-05-23T11:08:06.254Z,28.93
2018-05-23T11:10:33.836Z,29.29
2018-05-23T11:13:01.439Z,30.21
2018-05-23T11:15:29.012Z,33.48
2018-05-23T11:17:56.672Z,30.81
2018-05-23T11:20:24.431Z,29.78
2018-05-23T11:22:52.005Z,29.67
2018-05-23T11:25:19.883Z,30.03
2018-05-23T11:27:47.460Z,30.21
2018-05-23T11:30:15.089Z,29.48
2018-05-23T11:32:42.822Z,29.67
2018-05-23T11:35:10.396Z,31.14
2018-05-23T11:37:37.992Z,33.10
2018-05-23T11:40:05.776Z,33.82
2018-05-23T11:42:33.597Z,31.45
2018-05-23T11:45:01.414Z,30.90
2018-05-23T11:47:28.984Z,31.11
2018-05-23T11:49:56.663Z,30.25
2018-05-23T11:52:24.247Z,32.47
2018-05-23T11:54:52.086Z,32.29
2018-05-23T11:57:19.906Z,32.48
2018-05-23T11:59:47.493Z,32.18
2018-05-23T12:02:15.091Z,30.26
2018-05-23T12:04:42.667Z,31.05
2018-05-23T12:07:10.398Z,30.90
2018-05-23T12:09:37.973Z,30.37
2018-05-23T12:12:05.606Z,31.58
2018-05-23T12:14:33.229Z,30.38
2018-05-23T12:17:00.788Z,30.50
2018-05-23T12:19:28.470Z,31.37
2018-05-23T12:21:56.072Z,30.71
2018-05-23T12:24:23.669Z,32.44
2018-05-23T12:26:51.253Z,32.35
2018-05-23T12:29:18.906Z,30.81
2018-05-23T12:31:46.658Z,31.60
2018-05-23T12:34:14.476Z,30.94
2018-05-23T12:36:42.065Z,31.67
2018-05-23T12:39:09.640Z,32.38
2018-05-23T12:41:37.221Z,31.07
2018-05-23T12:44:05.050Z,32.22
2018-05-23T12:46:32.680Z,31.88
2018-05-23T12:49:00.264Z,32.45
2018-05-23T12:51:27.846Z,33.63
2018-05-23T12:53:55.433Z,33.56
2018-05-23T12:56:23.013Z,33.82
2018-05-23T12:58:50.855Z,33.49
2018-05-23T13:01:18.449Z,33.21
2018-05-23T13:03:46.076Z,33.54
2018-05-23T13:06:13.910Z,32.86
2018-05-23T13:08:41.504Z,32.92
2018-05-23T13:11:09.110Z,32.19
2018-05-23T13:13:36.693Z,32.13
2018-05-23T13:16:04.394Z,33.72
2018-05-23T13:18:31.986Z,32.18
2018-05-23T13:20:59.732Z,31.96
2018-05-23T13:23:27.323Z,33.05
2018-05-23T13:25:54.950Z,33.33
2018-05-23T13:28:22.571Z,31.81
2018-05-23T13:30:50.298Z,31.72
2018-05-23T13:33:18.021Z,31.33
2018-05-23T13:35:45.827Z,33.75
2018-05-23T13:38:13.647Z,32.42
2018-05-23T13:40:41.285Z,32.96
2018-05-23T13:43:08.869Z,32.84
2018-05-23T13:45:36.701Z,33.31
2018-05-23T13:48:04.301Z,34.14
2018-05-23T13:50:31.897Z,33.70
2018-05-23T13:52:59.655Z,33.38
2018-05-23T13:55:27.476Z,34.16
2018-05-23T13:57:55.065Z,33.61
2018-05-23T14:00:22.783Z,33.89
2018-05-23T14:02:50.628Z,32.52
2018-05-23T14:05:18.204Z,33.52
2018-05-23T14:07:45.793Z,34.91
2018-05-23T14:10:13.387Z,33.16
2018-05-23T14:12:41.016Z,32.98
2018-05-23T14:15:08.592Z,32.79
2018-05-23T14:17:36.438Z,33.50
2018-05-23T14:20:04.100Z,33.42
2018-05-23T14:22:31.837Z,34.33
2018-05-23T14:24:59.468Z,34.85
2018-05-23T14:27:27.221Z,35.84
2018-05-23T14:29:54.852Z,35.86
2018-05-23T14:32:22.440Z,36.20
2018-05-23T14:34:50.012Z,36.83
2018-05-23T14:37:17.609Z,36.80
2018-05-23T14:39:45.357Z,37.43
2018-05-23T14:42:12.954Z,37.53
2018-05-23T14:44:40.545Z,38.56
2018-05-23T14:47:08.213Z,37.68
2018-05-23T14:49:35.846Z,37.83
2018-05-23T14:52:03.472Z,38.09
2018-05-23T14:54:31.056Z,38.32
2018-05-23T14:56:59.221Z,38.51
2018-05-23T14:59:27.012Z,37.91
2018-05-23T15:01:54.591Z,38.07
2018-05-23T15:04:22.188Z,37.48
2018-05-23T15:06:49.755Z,38.12
2018-05-23T15:09:17.332Z,38.74
2018-05-23T15:11:44.913Z,38.36
2018-05-23T15:14:12.496Z,39.33
2018-05-23T15:16:40.080Z,39.74
2018-05-23T15:19:07.667Z,40.32
2018-05-23T15:21:35.283Z,40.68
2018-05-23T15:24:02.859Z,41.39
2018-05-23T15:26:30.456Z,41.79
2018-05-23T15:28:58.053Z,42.29
2018-05-23T15:31:25.622Z,41.03
2018-05-23T15:33:53.233Z,40.91
2018-05-23T15:36:20.808Z,41.93
2018-05-23T15:38:48.426Z,41.67
2018-05-23T15:41:16.005Z,42.03
2018-05-23T15:43:43.642Z,41.49
2018-05-23T15:46:11.263Z,41.17
2018-05-23T15:48:38.842Z,41.96
2018-05-23T15:51:06.571Z,42.46
2018-05-23T15:53:34.095Z,43.07
2018-05-23T15:56:01.700Z,42.60
2018-05-23T15:58:29.292Z,42.70
2018-05-23T16:00:56.868Z,43.00
2018-05-23T16:03:24.483Z,43.19
2018-05-23T16:05:52.064Z,43.50
2018-05-23T16:08:19.690Z,43.68
2018-05-23T16:10:47.288Z,43.16
2018-05-23T16:13:14.880Z,43.02
2018-05-23T16:15:42.460Z,43.39
2018-05-23T16:18:10.024Z,43.39
2018-05-23T16:20:38.581Z,43.60
2018-05-23T16:23:06.357Z,43.73
2018-05-23T16:25:33.948Z,44.41
2018-05-23T16:28:01.518Z,44.70
2018-05-23T16:30:29.088Z,44.27
2018-05-23T16:32:56.670Z,44.11
2018-05-23T16:35:24.240Z,44.28
2018-05-23T16:37:51.860Z,44.55
2018-05-23T16:40:19.442Z,44.78
2018-05-23T16:42:47.011Z,44.58
2018-05-23T16:45:14.597Z,44.85
2018-05-23T16:47:42.166Z,45.06
2018-05-23T16:50:09.751Z,45.08
2018-05-23T16:52:37.313Z,44.97
2018-05-23T16:55:04.937Z,45.25
2018-05-23T16:57:32.509Z,45.63
2018-05-23T17:00:00.093Z,45.95
2018-05-23T17:02:27.760Z,46.18
2018-05-23T17:04:55.412Z,46.30
2018-05-23T17:07:22.992Z,46.67
2018-05-23T17:09:50.553Z,46.82
2018-05-23T17:12:18.149Z,47.04
2018-05-23T17:14:45.716Z,47.46
2018-05-23T17:17:13.380Z,47.66
2018-05-23T17:19:40.952Z,47.98
2018-05-23T17:22:08.524Z,48.37
2018-05-23T17:24:36.093Z,49.54
2018-05-23T17:27:03.737Z,48.96
2018-05-23T17:29:31.312Z,47.90
2018-05-23T17:31:58.941Z,46.72
2018-05-23T17:34:26.579Z,46.28
2018-05-23T17:36:54.145Z,46.50
2018-05-23T17:39:21.792Z,46.58
2018-05-23T17:41:49.381Z,46.14
2018-05-23T17:44:16.969Z,45.81
2018-05-23T17:46:44.568Z,46.24
2018-05-23T17:49:12.165Z,46.46
2018-05-23T17:51:39.819Z,46.68
2018-05-23T17:54:07.424Z,47.10
2018-05-23T17:56:34.996Z,46.96
2018-05-23T17:59:02.576Z,46.87
2018-05-23T18:01:30.148Z,47.43
2018-05-23T18:03:57.725Z,46.71
2018-05-23T18:06:25.365Z,47.23
2018-05-23T18:08:52.971Z,47.30
2018-05-23T18:11:20.584Z,47.01
2018-05-23T18:13:48.213Z,47.12
2018-05-23T18:16:15.836Z,46.91
2018-05-23T18:18:43.410Z,47.09
2018-05-23T18:21:10.991Z,47.57
2018-05-23T18:23:38.608Z,47.89
2018-05-23T18:26:06.256Z,48.18
2018-05-23T18:28:33.936Z,48.34
2018-05-23T18:31:01.453Z,48.46
2018-05-23T18:33:29.028Z,48.82
2018-05-23T18:35:56.608Z,48.95
2018-05-23T18:38:24.231Z,49.15
2018-05-23T18:40:51.800Z,48.84
2018-05-23T18:43:19.425Z,49.10
2018-05-23T18:45:47.004Z,49.83
2018-05-23T18:48:14.580Z,50.02
2018-05-23T18:50:42.176Z,49.95
2018-05-23T18:53:09.854Z,50.06
2018-05-23T18:55:37.457Z,50.41
2018-05-23T18:58:05.040Z,50.80
2018-05-23T19:00:32.680Z,51.18
2018-05-23T19:03:00.417Z,51.34
2018-05-23T19:05:28.059Z,51.89
2018-05-23T19:07:55.660Z,52.11
2018-05-23T19:10:23.472Z,52.34
2018-05-23T19:12:51.088Z,52.70
2018-05-23T19:15:18.726Z,53.35
2018-05-23T19:17:46.409Z,54.09
2018-05-23T19:20:14.030Z,53.86
2018-05-23T19:22:41.616Z,54.37
2018-05-23T19:25:09.200Z,54.54
2018-05-23T19:27:36.785Z,55.02
2018-05-23T19:30:04.474Z,55.23
2018-05-23T19:32:32.065Z,55.09
2018-05-23T19:34:59.659Z,55.48
2018-05-23T19:37:27.266Z,55.68
2018-05-23T19:39:55.087Z,55.76
2018-05-23T19:42:22.601Z,56.26
2018-05-23T19:44:50.225Z,56.64
2018-05-23T19:47:17.900Z,56.53
2018-05-23T19:49:45.532Z,56.65
2018-05-23T19:52:13.229Z,57.08
2018-05-23T19:54:40.845Z,57.29
2018-05-23T19:57:08.467Z,57.40
2018-05-23T19:59:36.044Z,57.67
2018-05-23T20:02:03.739Z,58.05
2018-05-23T20:04:31.405Z,57.89
2018-05-23T20:06:58.997Z,58.32
2018-05-23T20:09:26.761Z,58.98
2018-05-23T20:11:54.475Z,58.81
2018-05-23T20:14:22.210Z,58.81
2018-05-23T20:16:49.792Z,58.99
2018-05-23T20:19:17.388Z,59.09
2018-05-23T20:21:44.955Z,59.13
2018-05-23T20:24:13.071Z,59.44
2018-05-23T20:26:41.488Z,59.31
2018-05-23T20:29:09.379Z,59.27
2018-05-23T20:31:37.022Z,59.49
2018-05-23T20:34:04.624Z,59.54
2018-05-23T20:36:32.212Z,59.59
2018-05-23T20:39:00.019Z,59.87
2018-05-23T20:41:27.660Z,60.08
2018-05-23T20:43:55.250Z,60.52
2018-05-23T20:46:23.046Z,60.73
2018-05-23T20:48:50.619Z,60.76
2018-05-23T20:51:18.202Z,60.85
2018-05-23T20:53:45.873Z,61.05
2018-05-23T20:56:13.456Z,60.79
2018-05-23T20:58:41.065Z,60.81
2018-05-23T21:01:08.810Z,61.12
2018-05-23T21:03:36.385Z,61.09
2018-05-23T21:06:04.000Z,61.54
2018-05-23T21:08:31.762Z,61.79
2018-05-23T21:10:59.624Z,62.08
2018-05-23T21:13:27.212Z,62.19
2018-05-23T21:15:55.064Z,62.34
2018-05-23T21:18:22.692Z,62.27
2018-05-23T21:20:50.268Z,62.19
2018-05-23T21:23:17.892Z,62.72
2018-05-23T21:25:45.552Z,62.88
2018-05-23T21:28:13.180Z,63.32
2018-05-23T21:30:41.281Z,63.42
2018-05-23T21:33:08.935Z,63.90
2018-05-23T21:35:36.902Z,64.01
2018-05-23T21:38:04.891Z,64.31
2018-05-23T21:40:32.494Z,64.49
2018-05-23T21:43:00.073Z,64.07
2018-05-23T21:45:27.840Z,64.26
2018-05-23T21:47:55.541Z,66.03
2018-05-23T21:50:23.179Z,66.70
2018-05-23T21:52:50.865Z,67.68
2018-05-23T21:55:18.567Z,68.63
2018-05-23T21:57:46.368Z,69.20
2018-05-23T22:00:14.478Z,69.31
2018-05-23T22:02:42.333Z,69.48
2018-05-23T22:05:09.931Z,69.48
2018-05-23T22:07:38.389Z,68.26
2018-05-23T22:10:06.022Z,67.35
2018-05-23T22:12:33.671Z,67.13
2018-05-23T22:15:01.269Z,67.50
2018-05-23T22:17:29.018Z,67.36
2018-05-23T22:19:56.937Z,67.22
2018-05-23T22:22:24.633Z,67.18
2018-05-23T22:24:52.372Z,66.96
2018-05-23T22:27:20.129Z,67.24
2018-05-23T22:29:47.726Z,67.20
2018-05-23T22:32:15.909Z,67.40
2018-05-23T22:34:44.556Z,67.36
2018-05-23T22:37:12.187Z,68.96
2018-05-23T22:39:39.768Z,69.54
2018-05-23T22:42:07.368Z,70.10
2018-05-23T22:44:35.034Z,70.97
2018-05-23T22:47:02.604Z,71.46
2018-05-23T22:49:30.359Z,71.50
2018-05-23T22:51:59.009Z,71.78
2018-05-23T22:54:26.998Z,72.09
2018-05-23T22:56:54.572Z,72.36
2018-05-23T22:59:22.235Z,71.98
2018-05-23T23:01:50.055Z,71.52
2018-05-23T23:04:17.773Z,70.62
2018-05-23T23:06:45.600Z,70.80
2018-05-23T23:09:15.409Z,71.00
2018-05-23T23:11:43.552Z,71.07
2018-05-23T23:14:11.358Z,71.47
2018-05-23T23:16:39.161Z,72.23
2018-05-23T23:19:07.002Z,73.30
2018-05-23T23:21:34.813Z,73.92
2018-05-23T23:24:02.645Z,73.76
2018-05-23T23:26:30.253Z,73.45
2018-05-23T23:28:57.978Z,73.17
2018-05-23T23:31:25.749Z,73.44
2018-05-23T23:33:53.505Z,73.36
2018-05-23T23:36:21.180Z,73.73
2018-05-23T23:38:48.764Z,73.65
2018-05-23T23:41:16.388Z,74.16
2018-05-23T23:43:43.978Z,74.41
2018-05-23T23:46:11.674Z,74.84
2018-05-23T23:48:39.234Z,74.99
2018-05-23T23:51:06.915Z,75.57
2018-05-23T23:53:34.529Z,74.99
2018-05-23T23:56:02.370Z,74.96
2018-05-23T23:58:30.186Z,74.61
